createdAt,value
2023-07-25T00:01:21.697Z,13.52
2023-07-25T00:03:49.214Z,13.53
2023-07-25T00:06:16.266Z,13.53
2023-07-25T00:08:44.466Z,13.60
2023-07-25T00:11:13.757Z,13.56
2023-07-25T00:13:40.671Z,13.53
2023-07-25T00:16:07.513Z,13.29
2023-07-25T00:18:34.432Z,13.22
2023-07-25T00:21:01.287Z,13.23
2023-07-25T00:23:28.231Z,13.18
2023-07-25T00:25:56.401Z,13.17
2023-07-25T00:28:23.269Z,13.08
2023-07-25T00:30:50.306Z,12.95
2023-07-25T00:33:17.180Z,12.83
2023-07-25T00:35:51.841Z,12.76
2023-07-25T00:38:18.671Z,12.71
2023-07-25T00:40:48.332Z,12.70
2023-07-25T00:43:16.477Z,12.69
2023-07-25T00:45:43.579Z,12.54
2023-07-25T00:48:10.507Z,12.54
2023-07-25T00:50:37.379Z,12.46
2023-07-25T00:53:07.169Z,12.44
2023-07-25T00:55:34.312Z,12.34
2023-07-25T00:58:01.665Z,12.23
2023-07-25T01:00:29.821Z,12.29
2023-07-25T01:02:57.037Z,12.21
2023-07-25T01:05:24.730Z,12.21
2023-07-25T01:07:51.634Z,12.38
2023-07-25T01:10:18.429Z,12.39
2023-07-25T01:12:45.199Z,12.38
2023-07-25T01:15:12.093Z,12.31
2023-07-25T01:17:40.382Z,12.33
2023-07-25T01:20:09.699Z,12.27
2023-07-25T01:22:37.435Z,12.24
2023-07-25T01:25:08.626Z,12.24
2023-07-25T01:27:35.528Z,12.25
2023-07-25T01:30:02.564Z,12.27
2023-07-25T01:32:29.475Z,12.24
2023-07-25T01:34:56.317Z,12.20
2023-07-25T01:37:23.078Z,12.01
2023-07-25T01:39:49.974Z,12.06
2023-07-25T01:42:18.287Z,12.05
2023-07-25T01:44:45.066Z,12.02
2023-07-25T01:47:11.974Z,11.96
2023-07-25T01:49:38.815Z,12.00
2023-07-25T01:52:06.828Z,12.01
2023-07-25T01:54:33.674Z,12.00
2023-07-25T01:57:00.514Z,11.94
2023-07-25T01:59:29.639Z,11.89
2023-07-25T02:01:56.487Z,11.79
2023-07-25T02:04:23.335Z,11.83
2023-07-25T02:06:50.083Z,11.79
2023-07-25T02:09:16.995Z,11.84
2023-07-25T02:11:43.848Z,11.77
2023-07-25T02:14:10.769Z,11.76
2023-07-25T02:16:41.760Z,11.68
2023-07-25T02:19:08.842Z,11.74
2023-07-25T02:21:40.054Z,11.73
2023-07-25T02:24:06.928Z,11.69
2023-07-25T02:26:33.768Z,11.69
2023-07-25T02:29:00.582Z,11.72
2023-07-25T02:31:27.554Z,11.77
2023-07-25T02:33:55.971Z,11.81
2023-07-25T02:36:22.965Z,11.87
2023-07-25T02:38:51.831Z,11.91
2023-07-25T02:41:18.835Z,11.81
2023-07-25T02:43:46.813Z,11.83
2023-07-25T02:46:14.062Z,11.79
2023-07-25T02:48:40.917Z,11.75
2023-07-25T02:51:09.189Z,11.75
2023-07-25T02:53:36.162Z,11.74
2023-07-25T02:56:03.227Z,11.78
2023-07-25T02:58:30.048Z,11.74
2023-07-25T03:00:57.275Z,11.80
2023-07-25T03:03:24.219Z,11.79
2023-07-25T03:05:51.214Z,11.88
2023-07-25T03:08:19.537Z,11.90
2023-07-25T03:10:46.368Z,12.00
2023-07-25T03:13:13.252Z,12.06
2023-07-25T03:15:40.273Z,12.09
2023-07-25T03:18:08.076Z,12.06
2023-07-25T03:20:35.495Z,12.12
2023-07-25T03:23:02.576Z,12.14
2023-07-25T03:25:30.963Z,12.21
2023-07-25T03:27:57.858Z,12.27
2023-07-25T03:30:25.358Z,12.20
2023-07-25T03:32:53.572Z,12.22
2023-07-25T03:35:21.108Z,12.21
2023-07-25T03:37:47.989Z,12.19
2023-07-25T03:40:14.911Z,12.16
2023-07-25T03:42:43.088Z,12.09
2023-07-25T03:45:12.625Z,12.11
2023-07-25T03:47:40.236Z,12.16
2023-07-25T03:50:08.340Z,12.09
2023-07-25T03:52:35.290Z,12.02
2023-07-25T03:55:02.201Z,11.98
2023-07-25T03:57:29.028Z,11.96
2023-07-25T03:59:57.353Z,11.98
2023-07-25T04:02:24.394Z,12.02
2023-07-25T04:04:53.876Z,12.05
2023-07-25T04:07:22.840Z,11.97
2023-07-25T04:09:49.974Z,12.01
2023-07-25T04:12:16.810Z,12.03
2023-07-25T04:14:44.757Z,12.06
2023-07-25T04:17:13.283Z,12.04
2023-07-25T04:19:40.162Z,12.16
2023-07-25T04:22:07.057Z,12.21
2023-07-25T04:24:33.962Z,12.27
2023-07-25T04:27:00.836Z,12.29
2023-07-25T04:29:27.670Z,12.30
2023-07-25T04:31:54.511Z,12.39
2023-07-25T04:34:22.694Z,12.50
2023-07-25T04:36:50.151Z,12.47
2023-07-25T04:39:16.946Z,12.41
2023-07-25T04:41:43.837Z,12.47
2023-07-25T04:44:12.209Z,12.53
2023-07-25T04:46:39.141Z,12.56
2023-07-25T04:49:05.972Z,12.61
2023-07-25T04:51:34.368Z,12.74
2023-07-25T04:54:01.583Z,12.68
2023-07-25T04:56:29.607Z,12.62
2023-07-25T04:58:56.524Z,12.67
2023-07-25T05:01:23.738Z,12.70
2023-07-25T05:03:50.692Z,12.72
2023-07-25T05:06:17.517Z,12.74
2023-07-25T05:08:45.776Z,12.81
2023-07-25T05:11:12.621Z,12.86
2023-07-25T05:13:39.911Z,12.84
2023-07-25T05:16:07.274Z,12.90
2023-07-25T05:18:34.386Z,12.92
2023-07-25T05:21:01.421Z,12.98
2023-07-25T05:23:28.372Z,13.03
2023-07-25T05:25:56.543Z,13.00
2023-07-25T05:28:23.395Z,13.01
2023-07-25T05:30:50.195Z,13.04
2023-07-25T05:33:17.415Z,13.05
2023-07-25T05:35:44.680Z,13.07
2023-07-25T05:38:11.944Z,13.00
2023-07-25T05:40:39.279Z,12.98
2023-07-25T05:43:07.503Z,12.99
2023-07-25T05:45:34.347Z,12.97
2023-07-25T05:48:01.215Z,12.95
2023-07-25T05:50:28.144Z,13.02
2023-07-25T05:52:54.939Z,12.92
2023-07-25T05:55:21.876Z,12.75
2023-07-25T05:57:48.624Z,12.78
2023-07-25T06:00:19.276Z,12.80
2023-07-25T06:02:47.471Z,12.86
2023-07-25T06:05:14.376Z,12.84
2023-07-25T06:08:03.227Z,12.82
2023-07-25T06:10:34.455Z,12.81
2023-07-25T06:13:01.825Z,12.86
2023-07-25T06:15:30.848Z,12.87
2023-07-25T06:17:58.427Z,13.00
2023-07-25T06:20:25.729Z,12.97
2023-07-25T06:22:52.640Z,12.90
2023-07-25T06:25:20.004Z,12.86
2023-07-25T06:27:46.858Z,12.89
2023-07-25T06:30:14.214Z,12.91
2023-07-25T06:32:47.755Z,12.93
2023-07-25T06:35:16.551Z,12.91
2023-07-25T06:37:44.525Z,12.94
2023-07-25T06:40:12.572Z,12.96
2023-07-25T06:42:40.784Z,12.96
2023-07-25T06:45:09.494Z,12.98
2023-07-25T06:47:36.397Z,12.96
2023-07-25T06:50:05.378Z,12.97
2023-07-25T06:52:32.233Z,13.00
2023-07-25T06:54:59.219Z,13.10
2023-07-25T06:57:26.016Z,13.06
2023-07-25T06:59:57.569Z,12.98
2023-07-25T07:02:25.007Z,12.97
2023-07-25T07:04:51.956Z,12.92
2023-07-25T07:07:20.187Z,12.94
2023-07-25T07:09:47.045Z,12.91
2023-07-25T07:12:13.940Z,13.00
2023-07-25T07:14:43.079Z,13.10
2023-07-25T07:17:11.206Z,13.19
2023-07-25T07:19:38.684Z,13.29
2023-07-25T07:22:05.617Z,13.37
2023-07-25T07:24:33.832Z,13.46
2023-07-25T07:27:00.769Z,13.60
2023-07-25T07:29:30.625Z,13.81
2023-07-25T07:31:58.473Z,13.90
2023-07-25T07:34:25.333Z,14.16
2023-07-25T07:36:52.151Z,14.40
2023-07-25T07:39:18.931Z,14.53
2023-07-25T07:41:47.198Z,14.66
2023-07-25T07:44:14.043Z,14.83
2023-07-25T07:46:41.129Z,15.19
2023-07-25T07:49:07.936Z,15.60
2023-07-25T07:51:35.249Z,16.02
2023-07-25T07:54:02.228Z,16.52
2023-07-25T07:56:29.361Z,16.67
2023-07-25T07:58:57.560Z,17.16
2023-07-25T08:01:24.750Z,17.37
2023-07-25T08:03:51.519Z,17.51
2023-07-25T08:06:18.451Z,17.53
2023-07-25T08:08:45.409Z,17.55
2023-07-25T08:11:12.291Z,17.37
2023-07-25T08:13:39.198Z,17.18
2023-07-25T08:16:07.805Z,17.16
2023-07-25T08:18:34.864Z,17.15
2023-07-25T08:21:02.445Z,17.12
2023-07-25T08:23:29.271Z,17.08
2023-07-25T08:25:57.671Z,17.04
2023-07-25T08:28:25.336Z,17.01
2023-07-25T08:31:02.245Z,16.71
2023-07-25T08:33:31.306Z,16.84
2023-07-25T08:35:58.138Z,16.94
2023-07-25T08:38:25.284Z,16.91
2023-07-25T08:41:01.134Z,16.89
2023-07-25T08:43:30.009Z,16.82
2023-07-25T08:45:58.369Z,16.76
2023-07-25T08:48:29.166Z,16.69
2023-07-25T08:51:01.234Z,16.58
2023-07-25T08:53:29.488Z,16.47
2023-07-25T08:56:00.266Z,16.38
2023-07-25T08:58:28.681Z,16.41
2023-07-25T09:00:55.955Z,16.42
2023-07-25T09:03:23.526Z,16.43
2023-07-25T09:05:51.381Z,16.43
2023-07-25T09:08:20.034Z,16.47
2023-07-25T09:10:47.178Z,16.56
2023-07-25T09:13:14.641Z,16.63
2023-07-25T09:15:41.468Z,16.73
2023-07-25T09:18:08.303Z,16.81
2023-07-25T09:20:37.039Z,16.86
2023-07-25T09:23:04.013Z,16.86
2023-07-25T09:25:32.345Z,16.90
2023-07-25T09:27:59.542Z,16.95
2023-07-25T09:30:28.513Z,17.04
2023-07-25T09:32:55.613Z,17.10
2023-07-25T09:35:23.821Z,17.18
2023-07-25T09:37:55.552Z,17.21
2023-07-25T09:40:22.907Z,17.29
2023-07-25T09:42:52.046Z,17.27
2023-07-25T09:45:18.969Z,17.25
2023-07-25T09:47:50.994Z,17.20
2023-07-25T09:50:17.858Z,17.20
2023-07-25T09:52:46.400Z,17.17
2023-07-25T09:55:13.223Z,17.15
2023-07-25T09:57:40.266Z,17.10
2023-07-25T10:00:10.355Z,17.06
2023-07-25T10:02:38.418Z,17.01
2023-07-25T10:05:08.234Z,16.90
2023-07-25T10:07:35.621Z,16.88
2023-07-25T10:10:03.009Z,16.86
2023-07-25T10:12:29.805Z,16.88
2023-07-25T10:14:57.112Z,16.93
2023-07-25T10:17:26.047Z,16.92
2023-07-25T10:19:54.696Z,16.81
2023-07-25T10:22:35.199Z,16.79
2023-07-25T10:25:02.232Z,16.69
2023-07-25T10:27:29.437Z,16.66
2023-07-25T10:30:00.366Z,16.65
2023-07-25T10:35:39.623Z,16.49
2023-07-25T10:38:09.776Z,16.42
2023-07-25T10:40:52.686Z,16.29
2023-07-25T10:43:20.860Z,16.20
2023-07-25T10:45:49.863Z,16.00
2023-07-25T10:48:28.101Z,15.84
2023-07-25T10:50:56.419Z,15.80
2023-07-25T10:53:23.434Z,15.83
2023-07-25T10:56:14.852Z,15.80
2023-07-25T10:59:09.302Z,15.75
2023-07-25T11:01:40.262Z,15.72
2023-07-25T11:04:27.163Z,15.78
2023-07-25T11:06:57.127Z,15.70
2023-07-25T11:09:25.537Z,15.75
2023-07-25T11:11:53.707Z,15.85
2023-07-25T11:14:21.345Z,15.92
2023-07-25T11:16:53.893Z,15.87
2023-07-25T11:19:26.645Z,16.03
2023-07-25T11:21:55.190Z,16.17
2023-07-25T11:24:22.632Z,16.36
2023-07-25T11:26:49.511Z,16.57
2023-07-25T11:29:18.678Z,16.80
2023-07-25T11:31:46.983Z,16.91
2023-07-25T11:34:16.387Z,17.00
2023-07-25T11:36:44.653Z,16.98
2023-07-25T11:39:14.121Z,17.16
2023-07-25T11:41:41.669Z,17.55
2023-07-25T11:44:14.115Z,17.76
2023-07-25T11:46:44.118Z,18.38
2023-07-25T11:49:13.123Z,18.48
2023-07-25T11:51:40.694Z,18.92
2023-07-25T11:54:08.946Z,19.32
2023-07-25T11:56:37.786Z,19.70
2023-07-25T11:59:05.206Z,20.09
2023-07-25T12:01:33.769Z,20.22
2023-07-25T12:04:01.861Z,20.31
2023-07-25T12:06:31.524Z,20.41
2023-07-25T12:09:00.526Z,20.51
2023-07-25T12:11:27.640Z,20.68
2023-07-25T12:13:59.168Z,20.74
2023-07-25T12:16:46.702Z,21.00
2023-07-25T12:19:15.139Z,21.23
2023-07-25T12:21:43.432Z,21.18
2023-07-25T12:24:11.406Z,21.20
2023-07-25T12:26:45.809Z,21.24
2023-07-25T12:29:19.499Z,21.10
2023-07-25T12:31:47.135Z,21.03
2023-07-25T12:34:14.058Z,21.12
2023-07-25T12:36:42.445Z,21.23
2023-07-25T12:39:11.322Z,21.30
2023-07-25T12:41:40.776Z,21.11
2023-07-25T12:44:08.005Z,21.34
2023-07-25T12:46:37.226Z,21.52
2023-07-25T12:49:04.407Z,21.32
2023-07-25T12:51:34.066Z,21.51
2023-07-25T12:54:01.290Z,21.69
2023-07-25T12:56:28.403Z,21.85
2023-07-25T12:58:57.192Z,21.96
2023-07-25T13:01:27.460Z,22.19
2023-07-25T13:03:56.445Z,22.30
2023-07-25T13:06:23.474Z,21.98
2023-07-25T13:08:50.496Z,22.05
2023-07-25T13:11:17.659Z,22.15
2023-07-25T13:13:44.506Z,22.34
2023-07-25T13:16:11.698Z,22.38
2023-07-25T13:18:38.844Z,22.12
2023-07-25T13:21:08.750Z,21.90
2023-07-25T13:23:36.151Z,22.24
2023-07-25T13:26:03.260Z,22.21
2023-07-25T13:28:30.418Z,22.11
2023-07-25T13:31:08.459Z,22.18
2023-07-25T13:33:35.466Z,21.91
2023-07-25T13:36:02.824Z,22.07
2023-07-25T13:38:31.174Z,22.17
2023-07-25T13:40:58.460Z,22.28
2023-07-25T13:43:25.853Z,22.18
2023-07-25T13:45:53.639Z,21.93
2023-07-25T13:48:20.906Z,21.77
2023-07-25T13:50:53.728Z,21.65
2023-07-25T13:53:21.773Z,21.49
2023-07-25T13:55:57.590Z,21.36
2023-07-25T13:58:24.852Z,21.25
2023-07-25T14:00:51.847Z,21.27
2023-07-25T14:03:18.690Z,21.39
2023-07-25T14:05:45.822Z,21.33
2023-07-25T14:08:14.153Z,21.34
2023-07-25T14:10:41.768Z,20.65
2023-07-25T14:13:10.813Z,20.64
2023-07-25T14:15:38.424Z,20.52
2023-07-25T14:18:05.412Z,20.30
2023-07-25T14:20:33.176Z,19.96
2023-07-25T14:23:00.290Z,19.80
2023-07-25T14:25:27.143Z,19.74
2023-07-25T14:27:56.185Z,19.69
2023-07-25T14:30:25.508Z,19.56
2023-07-25T14:32:52.611Z,19.43
2023-07-25T14:35:20.002Z,19.26
2023-07-25T14:37:55.997Z,19.17
2023-07-25T14:40:24.385Z,18.65
2023-07-25T14:42:51.861Z,18.58
2023-07-25T14:45:21.818Z,18.51
2023-07-25T14:47:50.638Z,18.38
2023-07-25T14:50:18.003Z,18.22
2023-07-25T14:52:45.080Z,17.88
2023-07-25T14:55:12.098Z,16.98
2023-07-25T15:50:17.917Z,10.23
2023-07-25T15:52:44.899Z,10.36
2023-07-25T15:55:12.198Z,10.46
2023-07-25T15:57:38.947Z,10.45
2023-07-25T16:00:06.980Z,10.57
2023-07-25T16:02:33.925Z,10.70
2023-07-25T16:05:00.757Z,10.80
2023-07-25T16:07:29.320Z,10.80
2023-07-25T16:09:56.593Z,10.81
2023-07-25T16:12:23.859Z,10.87
2023-07-25T16:14:50.785Z,10.88
2023-07-25T16:17:17.548Z,10.98
2023-07-25T16:19:44.433Z,10.70
2023-07-25T16:22:11.325Z,10.79
2023-07-25T16:24:39.557Z,10.69
2023-07-25T16:27:06.434Z,10.59
2023-07-25T16:29:33.491Z,10.44
2023-07-25T16:32:00.771Z,10.42
2023-07-25T16:34:27.573Z,10.35
2023-07-25T16:36:54.331Z,10.47
2023-07-25T16:39:21.174Z,10.53
2023-07-25T16:41:49.495Z,10.56
2023-07-25T16:44:16.280Z,10.69
2023-07-25T16:46:43.053Z,10.62
2023-07-25T16:49:09.934Z,10.69
2023-07-25T16:51:36.784Z,10.69
2023-07-25T16:54:03.726Z,10.56
2023-07-25T16:56:30.873Z,10.63
2023-07-25T16:59:00.536Z,10.63
2023-07-25T17:01:27.578Z,10.49
2023-07-25T17:03:54.575Z,10.51
2023-07-25T17:06:21.519Z,10.52
2023-07-25T17:08:48.533Z,10.51
2023-07-25T17:11:15.763Z,10.53
2023-07-25T17:13:42.611Z,10.65
2023-07-25T17:16:10.914Z,10.59
2023-07-25T17:18:37.747Z,10.67
2023-07-25T17:21:04.582Z,10.60
2023-07-25T17:23:31.514Z,10.46
2023-07-25T17:25:58.459Z,10.47
2023-07-25T17:28:25.885Z,10.47
2023-07-25T17:30:52.639Z,10.58
2023-07-25T17:33:20.748Z,10.52
2023-07-25T17:35:47.967Z,10.37
2023-07-25T17:38:15.107Z,10.22
2023-07-25T17:40:42.155Z,10.27
2023-07-25T17:43:09.059Z,10.35
2023-07-25T17:45:35.989Z,10.41
2023-07-25T17:48:02.821Z,10.38
2023-07-25T17:50:31.063Z,10.28
2023-07-25T17:52:57.863Z,10.30
2023-07-25T17:55:24.772Z,10.24
2023-07-25T17:57:51.630Z,10.46
2023-07-25T18:00:18.673Z,10.44
2023-07-25T18:02:46.137Z,10.42
2023-07-25T18:05:13.208Z,10.35
2023-07-25T18:07:41.519Z,10.10
2023-07-25T18:10:09.036Z,10.23
2023-07-25T18:12:35.901Z,10.08
2023-07-25T18:15:02.726Z,9.96
2023-07-25T18:17:29.576Z,10.06
2023-07-25T18:19:56.350Z,10.06
2023-07-25T18:22:43.945Z,10.12
2023-07-25T18:25:11.657Z,10.33
2023-07-25T18:27:38.649Z,10.18
2023-07-25T18:30:06.756Z,10.24
2023-07-25T18:32:33.584Z,10.16
2023-07-25T18:35:00.523Z,10.13
2023-07-25T18:37:27.280Z,10.09
2023-07-25T18:39:55.788Z,10.05
2023-07-25T18:42:22.735Z,9.99
2023-07-25T18:44:49.566Z,10.08
2023-07-25T18:47:24.858Z,10.18
2023-07-25T18:50:00.833Z,10.09
2023-07-25T18:52:27.626Z,10.00
2023-07-25T18:54:55.811Z,9.95
2023-07-25T18:57:22.607Z,10.08
2023-07-25T18:59:49.867Z,10.06
2023-07-25T19:02:19.576Z,10.07
2023-07-25T19:04:46.597Z,10.01
2023-07-25T19:07:13.432Z,9.98
2023-07-25T19:09:40.221Z,9.94
2023-07-25T19:12:09.109Z,9.92
2023-07-25T19:14:35.992Z,9.83
2023-07-25T19:17:02.997Z,9.78
2023-07-25T19:19:29.963Z,9.88
2023-07-25T19:21:56.812Z,9.79
2023-07-25T19:24:23.654Z,9.68
2023-07-25T19:26:50.427Z,9.55
2023-07-25T19:29:18.634Z,9.57
2023-07-25T19:31:45.586Z,9.62
2023-07-25T19:34:12.448Z,9.67
2023-07-25T19:36:40.394Z,9.80
2023-07-25T19:39:07.406Z,9.79
2023-07-25T19:41:34.451Z,9.86
2023-07-25T19:44:01.347Z,9.81
2023-07-25T19:46:29.996Z,9.69
2023-07-25T19:48:57.129Z,9.70
2023-07-25T19:51:23.881Z,9.75
2023-07-25T19:53:52.100Z,9.79
2023-07-25T19:56:19.077Z,9.84
2023-07-25T19:58:45.838Z,9.83
2023-07-25T20:01:13.682Z,9.83
2023-07-25T20:03:42.143Z,9.97
2023-07-25T20:06:09.985Z,9.95
2023-07-25T20:08:36.825Z,9.99
2023-07-25T20:11:03.862Z,9.97
2023-07-25T20:13:31.207Z,9.87
2023-07-25T20:15:58.138Z,9.94
2023-07-25T20:18:25.040Z,9.93
2023-07-25T20:21:00.079Z,9.98
2023-07-25T20:23:27.511Z,10.00
2023-07-25T20:25:54.749Z,10.10
2023-07-25T20:28:24.586Z,10.02
2023-07-25T20:30:52.730Z,9.90
2023-07-25T20:33:19.816Z,9.87
2023-07-25T20:35:46.633Z,9.85
2023-07-25T20:38:14.893Z,9.71
2023-07-25T20:40:41.730Z,9.58
2023-07-25T20:43:08.713Z,9.54
2023-07-25T20:45:36.002Z,9.42
2023-07-25T20:48:03.307Z,9.53
2023-07-25T20:50:32.940Z,9.51
2023-07-25T20:53:00.334Z,9.58
2023-07-25T20:55:28.538Z,9.43
2023-07-25T20:57:55.283Z,9.33
2023-07-25T21:00:22.143Z,9.44
2023-07-25T21:02:49.773Z,9.55
2023-07-25T21:05:18.340Z,9.50
2023-07-25T21:07:45.213Z,9.49
2023-07-25T21:10:12.551Z,9.56
2023-07-25T21:12:43.958Z,9.52
2023-07-25T21:15:10.887Z,9.52
2023-07-25T21:17:37.731Z,9.43
2023-07-25T21:20:05.392Z,9.37
2023-07-25T21:22:32.177Z,9.30
2023-07-25T21:24:59.749Z,9.26
2023-07-25T21:27:30.051Z,9.36
2023-07-25T21:30:00.366Z,9.34
2023-07-25T21:32:28.064Z,9.26
2023-07-25T21:34:55.059Z,9.12
2023-07-25T21:37:21.861Z,9.05
2023-07-25T21:39:48.994Z,9.00
2023-07-25T21:42:16.616Z,8.97
2023-07-25T21:44:44.048Z,9.00
2023-07-25T21:47:14.774Z,9.04
2023-07-25T21:49:44.218Z,8.94
2023-07-25T21:52:11.877Z,8.92
2023-07-25T21:54:39.945Z,8.81
2023-07-25T21:57:07.022Z,8.84
2023-07-25T21:59:34.434Z,8.82
2023-07-25T22:02:06.365Z,8.76
2023-07-25T22:04:34.739Z,8.75
2023-07-25T22:07:01.538Z,8.74
2023-07-25T22:09:28.418Z,8.75
2023-07-25T22:11:55.661Z,8.74
2023-07-25T22:14:24.534Z,8.68
2023-07-25T22:16:54.155Z,8.75
2023-07-25T22:19:23.969Z,8.79
2023-07-25T22:21:52.639Z,8.82
2023-07-25T22:24:20.814Z,8.78
2023-07-25T22:26:47.906Z,8.81
2023-07-25T22:29:15.068Z,8.84
2023-07-25T22:31:43.221Z,8.88
2023-07-25T22:34:10.592Z,8.83
2023-07-25T22:36:38.962Z,8.73
2023-07-25T22:39:07.194Z,8.74
2023-07-25T22:41:34.054Z,8.72
2023-07-25T22:44:01.103Z,8.77
2023-07-25T22:46:27.933Z,8.79
2023-07-25T22:48:54.930Z,8.83
2023-07-25T22:51:22.250Z,8.96
2023-07-25T22:53:49.539Z,8.95
2023-07-25T22:56:19.912Z,8.82
2023-07-25T22:58:47.347Z,8.71
2023-07-25T23:01:16.014Z,8.69
2023-07-25T23:03:43.005Z,8.64
2023-07-25T23:06:10.074Z,8.54
2023-07-25T23:08:39.144Z,8.53
2023-07-25T23:11:07.205Z,8.47
2023-07-25T23:13:36.582Z,8.41
2023-07-25T23:16:03.491Z,8.40
2023-07-25T23:18:30.532Z,8.40
2023-07-25T23:20:59.220Z,8.32
2023-07-25T23:23:26.955Z,8.26
2023-07-25T23:25:54.539Z,8.26
2023-07-25T23:28:22.735Z,8.24
2023-07-25T23:30:51.759Z,8.27
2023-07-25T23:33:20.424Z,8.26
2023-07-25T23:35:47.261Z,8.27
2023-07-25T23:38:14.954Z,8.26
2023-07-25T23:40:42.224Z,8.29
2023-07-25T23:43:09.738Z,8.26
2023-07-25T23:45:39.091Z,8.35
2023-07-25T23:48:10.689Z,8.33
2023-07-25T23:50:37.824Z,8.30
2023-07-25T23:53:05.374Z,8.31
2023-07-25T23:55:32.462Z,8.29
2023-07-25T23:58:02.142Z,8.30
